createdAt,value
2022-12-11T00:02:25.224Z,6.90
2022-12-11T00:05:27.003Z,3.63
2022-12-11T00:08:28.700Z,4.55
2022-12-11T00:11:30.423Z,8.00
2022-12-11T00:14:32.083Z,1.48
2022-12-11T00:17:33.870Z,7.35
2022-12-11T00:20:35.648Z,6.43
2022-12-11T00:23:38.039Z,5.45
2022-12-11T00:26:39.741Z,7.95
2022-12-11T00:29:41.374Z,7.55
2022-12-11T00:32:44.210Z,4.88
2022-12-11T00:35:48.122Z,7.72
2022-12-11T00:38:50.099Z,7.82
2022-12-11T00:41:51.691Z,7.95
2022-12-11T00:44:55.177Z,9.70
2022-12-11T00:47:56.757Z,6.25
2022-12-11T00:50:58.558Z,9.30
2022-12-11T00:54:00.325Z,3.63
2022-12-11T00:57:01.909Z,5.90
2022-12-11T01:00:07.230Z,8.15
2022-12-11T01:03:09.185Z,8.82
2022-12-11T01:06:18.663Z,6.18
2022-12-11T01:09:38.687Z,8.48
2022-12-11T01:12:40.396Z,4.68
2022-12-11T01:15:43.903Z,8.43
2022-12-11T01:18:45.449Z,4.57
2022-12-11T01:21:47.051Z,6.40
2022-12-11T01:24:49.001Z,8.43
2022-12-11T01:27:54.302Z,6.90
2022-12-11T01:30:55.953Z,8.05
2022-12-11T01:33:57.670Z,7.00
2022-12-11T01:36:59.559Z,7.30
2022-12-11T01:40:01.887Z,8.63
2022-12-11T01:43:03.585Z,5.82
2022-12-11T01:46:05.258Z,4.95
2022-12-11T01:49:09.164Z,9.95
2022-12-11T01:52:21.362Z,4.90
2022-12-11T01:55:23.115Z,8.13
2022-12-11T01:58:26.482Z,8.07
2022-12-11T02:01:32.171Z,3.05
2022-12-11T02:04:34.839Z,3.83
2022-12-11T02:07:45.827Z,6.88
2022-12-11T02:10:56.837Z,7.10
2022-12-11T02:14:11.683Z,3.40
2022-12-11T02:17:22.428Z,6.60
2022-12-11T02:20:28.021Z,6.53
2022-12-11T02:23:29.633Z,8.18
2022-12-11T02:26:40.358Z,4.50
2022-12-11T02:29:49.187Z,7.35
2022-12-11T02:32:57.790Z,6.05
2022-12-11T02:36:00.299Z,6.35
2022-12-11T02:39:03.126Z,5.65
2022-12-11T02:42:04.911Z,7.20
2022-12-11T02:45:08.182Z,5.00
2022-12-11T02:48:11.581Z,3.35
2022-12-11T02:51:14.261Z,5.88
2022-12-11T02:54:21.987Z,5.85
2022-12-11T02:57:43.018Z,3.88
2022-12-11T03:00:45.312Z,3.35
2022-12-11T03:03:47.306Z,6.93
2022-12-11T03:06:51.441Z,5.78
2022-12-11T03:09:53.652Z,5.13
2022-12-11T03:12:57.164Z,3.60
2022-12-11T03:16:04.942Z,5.25
2022-12-11T03:19:13.203Z,3.22
2022-12-11T03:22:26.890Z,5.88
2022-12-11T03:25:48.697Z,2.50
2022-12-11T03:29:04.748Z,2.83
2022-12-11T03:32:09.465Z,3.90
2022-12-11T03:35:26.296Z,1.63
2022-12-11T03:38:33.130Z,3.03
2022-12-11T03:44:36.903Z,3.47
2022-12-11T03:47:39.774Z,1.88
2022-12-11T03:50:41.656Z,2.33
2022-12-11T03:53:44.074Z,3.15
2022-12-11T03:56:46.774Z,1.98
2022-12-11T03:59:48.631Z,2.30
2022-12-11T04:03:13.633Z,3.30
2022-12-11T04:06:15.783Z,3.17
2022-12-11T04:09:17.384Z,1.23
2022-12-11T04:12:18.988Z,1.40
2022-12-11T04:15:20.632Z,1.40
2022-12-11T04:18:40.738Z,2.92
2022-12-11T04:22:00.778Z,1.55
2022-12-11T04:25:03.136Z,1.17
2022-12-11T04:28:04.864Z,1.85
2022-12-11T04:31:06.999Z,1.70
2022-12-11T04:34:08.783Z,2.40
2022-12-11T04:37:10.355Z,2.45
2022-12-11T04:40:13.938Z,2.40
2022-12-11T04:43:15.522Z,2.15
2022-12-11T04:46:19.282Z,4.50
2022-12-11T04:49:20.908Z,3.22
2022-12-11T04:52:22.471Z,5.18
2022-12-11T04:55:24.050Z,3.65
2022-12-11T04:58:26.160Z,2.63
2022-12-11T05:01:27.791Z,3.15
2022-12-11T05:04:33.248Z,2.80
2022-12-11T05:07:34.941Z,2.10
2022-12-11T05:10:36.530Z,2.53
2022-12-11T05:13:38.395Z,2.05
2022-12-11T05:16:40.027Z,0.88
2022-12-11T05:19:41.610Z,1.33
2022-12-11T05:22:43.485Z,1.77
2022-12-11T05:25:51.233Z,0.90
2022-12-11T05:28:54.245Z,3.08
2022-12-11T05:31:55.871Z,1.50
2022-12-11T05:34:57.470Z,3.33
2022-12-11T05:38:00.179Z,2.00
2022-12-11T05:41:02.889Z,1.40
2022-12-11T05:44:04.540Z,2.10
2022-12-11T05:47:06.182Z,1.60
2022-12-11T05:50:07.985Z,2.10
2022-12-11T05:53:09.566Z,0.50
2022-12-11T05:56:12.837Z,0.65
2022-12-11T05:59:14.737Z,1.58
2022-12-11T06:02:16.392Z,0.28
2022-12-11T06:05:17.957Z,0.38
2022-12-11T06:08:19.558Z,1.33
2022-12-11T06:11:24.166Z,1.92
2022-12-11T06:14:26.630Z,1.35
2022-12-11T06:17:28.225Z,1.30
2022-12-11T06:20:33.461Z,2.88
2022-12-11T06:23:35.019Z,3.83
2022-12-11T06:26:36.610Z,1.63
2022-12-11T06:29:38.217Z,2.35
2022-12-11T06:32:39.869Z,1.38
2022-12-11T06:35:42.453Z,2.40
2022-12-11T06:38:44.823Z,1.27
2022-12-11T06:41:46.455Z,1.67
2022-12-11T06:44:48.037Z,1.05
2022-12-11T06:47:49.614Z,2.45
2022-12-11T06:50:51.241Z,3.78
2022-12-11T06:53:53.794Z,2.90
2022-12-11T06:56:55.523Z,2.00
2022-12-11T06:59:57.123Z,2.33
2022-12-11T07:02:58.891Z,2.85
2022-12-11T07:06:01.655Z,4.20
2022-12-11T07:09:04.240Z,5.13
2022-12-11T07:12:06.491Z,3.72
2022-12-11T07:15:08.545Z,6.20
2022-12-11T07:18:10.846Z,2.35
2022-12-11T07:21:13.288Z,3.90
2022-12-11T07:24:15.029Z,3.47
2022-12-11T07:27:16.677Z,3.08
2022-12-11T07:30:18.273Z,5.20
2022-12-11T07:33:19.877Z,5.97
2022-12-11T07:36:21.521Z,4.35
2022-12-11T07:39:23.135Z,3.00
2022-12-11T07:42:24.707Z,5.13
2022-12-11T07:45:29.623Z,3.17
2022-12-11T07:48:31.310Z,5.13
2022-12-11T07:51:35.429Z,6.55
2022-12-11T07:54:37.124Z,3.55
2022-12-11T07:57:38.714Z,3.00
2022-12-11T08:00:40.612Z,3.60
2022-12-11T08:03:42.267Z,4.32
2022-12-11T08:06:43.856Z,2.38
2022-12-11T08:09:45.491Z,3.22
2022-12-11T08:12:47.088Z,2.70
2022-12-11T08:15:49.032Z,4.35
2022-12-11T08:18:50.637Z,5.40
2022-12-11T08:21:52.298Z,6.05
2022-12-11T08:24:53.851Z,5.15
2022-12-11T08:27:55.560Z,2.50
2022-12-11T08:30:57.282Z,4.55
2022-12-11T08:33:59.083Z,6.15
2022-12-11T08:37:00.731Z,4.28
2022-12-11T08:40:02.431Z,5.60
2022-12-11T08:43:04.024Z,5.05
2022-12-11T08:46:05.688Z,5.43
2022-12-11T08:49:07.409Z,3.95
2022-12-11T08:52:09.223Z,5.75
2022-12-11T08:55:11.025Z,6.32
2022-12-11T08:58:12.866Z,5.93
2022-12-11T09:01:21.548Z,7.50
2022-12-11T09:04:23.405Z,5.65
2022-12-11T09:07:25.479Z,4.45
2022-12-11T09:10:27.412Z,5.68
2022-12-11T09:13:29.027Z,4.78
2022-12-11T09:16:30.735Z,2.80
2022-12-11T09:19:32.695Z,4.65
2022-12-11T09:22:34.503Z,3.92
2022-12-11T09:25:39.730Z,1.52
2022-12-11T09:28:46.277Z,3.67
2022-12-11T09:31:49.693Z,4.05
2022-12-11T09:34:51.877Z,4.70
2022-12-11T09:37:53.460Z,5.10
2022-12-11T09:40:55.729Z,3.67
2022-12-11T09:44:16.447Z,5.50
2022-12-11T09:47:23.361Z,7.47
2022-12-11T09:53:34.061Z,3.33
2022-12-11T09:56:41.908Z,4.10
2022-12-11T10:00:02.754Z,3.75
2022-12-11T10:03:12.092Z,5.40
2022-12-11T10:06:16.532Z,5.03
2022-12-11T10:09:47.445Z,3.83
2022-12-11T10:13:01.962Z,6.68
2022-12-11T10:16:09.747Z,2.38
2022-12-11T10:19:19.167Z,4.63
2022-12-11T10:22:26.133Z,4.85
2022-12-11T10:25:30.106Z,4.13
2022-12-11T10:28:31.705Z,5.32
2022-12-11T10:31:49.511Z,5.40
2022-12-11T10:35:01.189Z,4.53
2022-12-11T10:38:11.699Z,3.75
2022-12-11T10:41:36.685Z,4.32
2022-12-11T10:44:38.559Z,5.28
2022-12-11T10:47:40.147Z,5.53
2022-12-11T10:50:43.152Z,3.83
2022-12-11T10:53:49.465Z,5.15
2022-12-11T10:56:51.691Z,8.43
2022-12-11T10:59:53.280Z,4.38
2022-12-11T11:02:55.206Z,5.95
2022-12-11T11:06:07.647Z,4.40
2022-12-11T11:09:29.415Z,4.30
2022-12-11T11:12:37.421Z,2.85
2022-12-11T11:15:39.115Z,3.45
2022-12-11T11:18:41.516Z,1.77
2022-12-11T11:21:47.977Z,6.95
2022-12-11T11:24:54.445Z,2.40
2022-12-11T11:27:57.688Z,2.22
2022-12-11T11:31:10.242Z,4.25
2022-12-11T11:34:18.922Z,2.85
2022-12-11T11:37:30.744Z,3.78
2022-12-11T11:40:42.339Z,4.28
2022-12-11T11:44:04.450Z,4.78
2022-12-11T11:47:10.852Z,5.00
2022-12-11T11:50:17.963Z,4.78
2022-12-11T11:53:27.366Z,4.30
2022-12-11T11:56:31.599Z,2.60
2022-12-11T11:59:59.637Z,4.38
2022-12-11T12:03:02.798Z,5.20
2022-12-11T12:06:19.739Z,4.72
2022-12-11T12:09:21.324Z,5.15
2022-12-11T12:12:41.807Z,5.13
2022-12-11T12:15:56.586Z,4.47
2022-12-11T12:18:58.162Z,2.00
2022-12-11T12:22:04.527Z,4.32
2022-12-11T12:25:19.797Z,3.38
2022-12-11T12:28:40.973Z,4.68
2022-12-11T12:31:42.685Z,3.67
2022-12-11T12:34:59.695Z,2.45
2022-12-11T12:38:11.361Z,2.47
2022-12-11T12:41:19.687Z,6.63
2022-12-11T12:44:23.967Z,2.55
2022-12-11T12:47:27.060Z,5.05
2022-12-11T12:50:31.967Z,3.63
2022-12-11T12:53:34.759Z,4.22
2022-12-11T12:56:36.735Z,4.00
2022-12-11T12:59:38.320Z,3.70
2022-12-11T13:02:50.564Z,2.63
2022-12-11T13:06:10.701Z,7.63
2022-12-11T13:09:23.742Z,4.40
2022-12-11T13:12:45.431Z,4.68
2022-12-11T13:15:47.027Z,4.95
2022-12-11T13:18:48.662Z,3.25
2022-12-11T13:22:03.046Z,5.68
2022-12-11T13:25:18.585Z,2.92
2022-12-11T13:28:25.065Z,1.98
2022-12-11T13:31:32.676Z,3.65
2022-12-11T13:34:36.192Z,2.78
2022-12-11T13:37:42.843Z,5.00
2022-12-11T13:40:45.477Z,2.10
2022-12-11T13:43:47.619Z,4.20
2022-12-11T13:46:49.931Z,4.07
2022-12-11T13:49:54.711Z,4.53
2022-12-11T13:52:57.677Z,2.85
2022-12-11T13:56:04.052Z,3.28
2022-12-11T13:59:05.618Z,0.85
2022-12-11T14:02:15.040Z,2.60
2022-12-11T14:05:16.758Z,2.60
2022-12-11T14:08:22.187Z,1.70
2022-12-11T14:11:27.935Z,2.65
2022-12-11T14:14:35.049Z,2.25
2022-12-11T14:17:36.758Z,3.03
2022-12-11T14:20:39.034Z,2.83
2022-12-11T14:23:40.602Z,2.80
2022-12-11T14:26:49.760Z,4.85
2022-12-11T14:29:51.414Z,3.70
2022-12-11T14:32:55.284Z,2.17
2022-12-11T14:35:57.389Z,0.40
2022-12-11T14:39:02.166Z,3.03
2022-12-11T14:42:06.263Z,3.25
2022-12-11T14:45:12.768Z,1.75
2022-12-11T14:48:17.733Z,2.75
2022-12-11T14:51:19.542Z,2.40
2022-12-11T14:54:39.408Z,1.27
2022-12-11T14:57:43.354Z,2.03
2022-12-11T15:00:55.656Z,4.35
2022-12-11T15:04:06.714Z,2.08
2022-12-11T15:07:19.898Z,1.60
2022-12-11T15:10:26.228Z,1.77
2022-12-11T15:13:27.991Z,1.80
2022-12-11T15:16:32.806Z,1.13
2022-12-11T15:19:35.021Z,1.42
2022-12-11T15:22:37.114Z,2.25
2022-12-11T15:25:38.768Z,2.67
2022-12-11T15:28:40.472Z,1.35
2022-12-11T15:31:42.265Z,2.60
2022-12-11T15:34:43.816Z,3.50
2022-12-11T15:37:51.914Z,1.20
2022-12-11T15:40:53.480Z,1.02
2022-12-11T15:43:58.958Z,1.45
2022-12-11T15:47:10.960Z,0.95
2022-12-11T15:50:16.724Z,1.52
2022-12-11T15:53:18.291Z,1.02
2022-12-11T15:56:19.870Z,2.15
2022-12-11T15:59:21.506Z,2.95
2022-12-11T16:02:24.507Z,1.80
2022-12-11T16:05:26.789Z,1.80
2022-12-11T16:08:28.401Z,3.85
2022-12-11T16:11:30.037Z,1.98
2022-12-11T16:14:31.593Z,2.90
2022-12-11T16:17:33.178Z,1.58
2022-12-11T16:20:35.437Z,0.57
2022-12-11T16:23:37.068Z,1.33
2022-12-11T16:26:38.658Z,2.28
2022-12-11T16:29:40.872Z,0.93
2022-12-11T16:32:42.516Z,0.88
2022-12-11T16:35:44.201Z,1.23
2022-12-11T16:38:52.947Z,1.98
2022-12-11T16:41:55.329Z,1.02
2022-12-11T16:45:03.671Z,2.75
2022-12-11T16:48:05.424Z,1.25
2022-12-11T16:51:06.995Z,2.25
2022-12-11T16:54:09.038Z,2.72
2022-12-11T16:57:10.635Z,2.47
2022-12-11T17:00:12.915Z,1.67
2022-12-11T17:03:14.871Z,0.82
2022-12-11T17:06:17.664Z,1.27
2022-12-11T17:09:19.442Z,1.98
2022-12-11T17:12:27.531Z,0.28
2022-12-11T17:15:29.164Z,1.20
2022-12-11T17:18:30.835Z,0.47
2022-12-11T17:21:32.414Z,1.02
2022-12-11T17:24:34.038Z,0.00
2022-12-11T17:27:35.745Z,1.33
2022-12-11T17:30:41.601Z,1.23
2022-12-11T17:33:44.148Z,2.27
2022-12-11T17:36:46.596Z,2.17
2022-12-11T17:39:48.227Z,0.80
2022-12-11T17:42:50.069Z,1.48
2022-12-11T17:45:52.614Z,3.58
2022-12-11T17:48:54.317Z,1.65
2022-12-11T17:51:55.990Z,0.80
2022-12-11T17:54:57.570Z,1.38
2022-12-11T17:57:59.236Z,1.63
2022-12-11T18:01:01.127Z,1.33
2022-12-11T18:04:02.852Z,0.88
2022-12-11T18:07:04.630Z,1.85
2022-12-11T18:10:06.357Z,2.65
2022-12-11T18:13:08.035Z,3.80
2022-12-11T18:16:17.439Z,1.30
2022-12-11T18:19:20.166Z,1.38
2022-12-11T18:22:21.864Z,2.65
2022-12-11T18:25:23.711Z,0.93
2022-12-11T18:28:26.051Z,0.85
2022-12-11T18:31:28.074Z,1.90
2022-12-11T18:34:30.027Z,1.67
2022-12-11T18:37:31.745Z,1.08
2022-12-11T18:40:35.697Z,0.20
2022-12-11T18:43:37.997Z,0.80
2022-12-11T18:46:39.756Z,0.68
2022-12-11T18:49:41.442Z,2.78
2022-12-11T18:52:43.075Z,3.90
2022-12-11T18:55:45.720Z,3.00
2022-12-11T18:58:47.792Z,0.00
2022-12-11T19:01:49.422Z,2.22
2022-12-11T19:04:51.005Z,2.05
2022-12-11T19:07:52.685Z,2.38
2022-12-11T19:10:54.332Z,1.55
2022-12-11T19:13:59.410Z,2.00
2022-12-11T19:17:03.249Z,0.95
2022-12-11T19:20:32.239Z,1.25
2022-12-11T19:23:27.523Z,0.63
2022-12-11T19:26:29.374Z,1.83
2022-12-11T19:29:34.113Z,1.05
2022-12-11T19:32:36.504Z,1.33
2022-12-11T19:35:38.295Z,1.92
2022-12-11T19:38:40.882Z,1.17
2022-12-11T19:41:42.497Z,1.13
2022-12-11T19:44:44.885Z,1.00
2022-12-11T19:47:46.432Z,2.30
2022-12-11T19:50:48.048Z,1.25
2022-12-11T19:53:50.070Z,2.78
2022-12-11T19:56:51.743Z,1.20
2022-12-11T19:59:57.143Z,2.03
2022-12-11T20:02:59.159Z,2.35
2022-12-11T20:06:01.523Z,1.70
2022-12-11T20:09:03.566Z,1.48
2022-12-11T20:12:06.675Z,1.17
2022-12-11T20:15:08.575Z,1.52
2022-12-11T20:18:15.421Z,1.35
2022-12-11T20:21:20.599Z,1.33
2022-12-11T20:24:22.488Z,1.23
2022-12-11T20:27:24.124Z,1.35
2022-12-11T20:30:25.959Z,1.42
2022-12-11T20:33:27.567Z,1.63
2022-12-11T20:36:29.188Z,0.75
2022-12-11T20:39:32.082Z,1.45
2022-12-11T20:42:33.777Z,1.33
2022-12-11T20:45:35.442Z,0.40
2022-12-11T20:48:37.772Z,2.50
2022-12-11T20:51:39.890Z,0.00
2022-12-11T20:54:41.505Z,0.40
2022-12-11T20:57:45.183Z,1.83
2022-12-11T21:00:47.616Z,2.05
2022-12-11T21:03:49.430Z,3.00
2022-12-11T21:06:55.457Z,2.40
2022-12-11T21:09:57.074Z,0.40
2022-12-11T21:12:58.631Z,2.95
2022-12-11T21:16:03.572Z,1.85
2022-12-11T21:19:05.622Z,1.10
2022-12-11T21:22:07.317Z,0.45
2022-12-11T21:25:09.308Z,1.35
2022-12-11T21:28:11.312Z,0.50
2022-12-11T21:31:14.321Z,0.28
2022-12-11T21:34:20.662Z,0.52
2022-12-11T21:37:25.438Z,1.25
2022-12-11T21:40:27.148Z,1.63
2022-12-11T21:43:28.742Z,1.92
2022-12-11T21:46:30.559Z,1.02
2022-12-11T21:49:32.237Z,2.45
2022-12-11T21:52:33.857Z,0.43
2022-12-11T21:55:35.512Z,1.63
2022-12-11T21:58:37.940Z,0.08
2022-12-11T22:01:42.162Z,1.85
2022-12-11T22:04:43.828Z,1.23
2022-12-11T22:07:45.457Z,1.27
2022-12-11T22:10:47.189Z,1.02
2022-12-11T22:13:48.801Z,0.55
2022-12-11T22:16:50.505Z,1.17
2022-12-11T22:19:52.200Z,1.50
2022-12-11T22:22:53.902Z,0.00
2022-12-11T22:25:55.983Z,1.67
2022-12-11T22:28:57.755Z,2.83
2022-12-11T22:31:59.348Z,3.40
2022-12-11T22:35:01.054Z,0.38
2022-12-11T22:38:02.814Z,1.38
2022-12-11T22:41:20.449Z,0.68
2022-12-11T22:44:23.732Z,1.00
2022-12-11T22:47:25.514Z,0.17
2022-12-11T22:50:27.096Z,1.13
2022-12-11T22:53:28.707Z,1.98
2022-12-11T22:56:30.294Z,0.47
2022-12-11T22:59:31.898Z,2.10
2022-12-11T23:02:33.618Z,1.05
2022-12-11T23:05:35.343Z,0.55
2022-12-11T23:08:37.463Z,0.65
2022-12-11T23:11:40.049Z,0.80
2022-12-11T23:14:41.604Z,1.92
2022-12-11T23:17:43.352Z,2.40
2022-12-11T23:20:44.937Z,2.22
2022-12-11T23:23:46.493Z,2.72
2022-12-11T23:26:48.221Z,1.10
2022-12-11T23:29:50.120Z,1.27
2022-12-11T23:32:51.764Z,1.02
2022-12-11T23:35:53.407Z,2.90
2022-12-11T23:38:55.335Z,3.72
2022-12-11T23:41:57.046Z,0.82
2022-12-11T23:44:58.782Z,1.67
2022-12-11T23:48:00.373Z,1.88
2022-12-11T23:51:02.716Z,0.68
2022-12-11T23:54:04.344Z,1.50
2022-12-11T23:57:06.318Z,0.88
